ADDS METAR Data INFO
IDs: Format: Raw Decoded Include TAF

Data at: 2041 UTC 20 Jul 2018

KHCO 202035Z AUTO 01009KT 7SM OVC013 21/18 A2999 RMK AO2
KHCO 202015Z AUTO 01009KT 5SM BR BKN011 21/18 A2998 RMK AO2
KHCO 201955Z AUTO 01010KT 7SM OVC011 21/18 A2998 RMK AO2
KHCO 201936Z AUTO 01010KT 7SM OVC009 20/18 A2998 RMK AO2
KHCO 201915Z AUTO 36008KT 5SM BR OVC011 19/18 A2998 RMK AO2
KHCO 201855Z AUTO 36011KT 5SM BR SCT008 BKN013 OVC018 19/18 A2997 RMK AO2
KHCO 201835Z AUTO 36008KT 7SM BKN013 BKN019 20/18 A2997 RMK AO2
KHCO 201815Z AUTO 35010KT 7SM BKN015 BKN021 20/18 A2996 RMK AO2
KHCO 201755Z AUTO 34008KT 7SM BKN012 BKN020 21/18 A2996 RMK AO2
KHCO 201735Z AUTO 34009KT 5SM BR SCT009 BKN014 OVC020 20/18 A2995 RMK AO2
KHCO 201715Z AUTO 35006KT 5SM BR SCT009 SCT014 BKN022 20/18 A2994 RMK AO2
KHCO 201655Z AUTO 34010KT 5SM BR BKN010 BKN016 20/18 A2995 RMK AO2
KHCO 201635Z AUTO 36007KT 4SM BR SCT010 BKN015 20/18 A2994 RMK AO2
KHCO 201615Z AUTO 35008KT 4SM BR BKN009 BKN014 19/18 A2994 RMK AO2
KHCO 201555Z AUTO 35009KT 4SM BR BKN009 19/18 A2993 RMK AO2
KHCO 201535Z AUTO 35008KT 5SM BR BKN009 BKN013 19/18 A2993 RMK AO2
KHCO 201515Z AUTO 35006KT 5SM BR BKN007 OVC013 19/18 A2993 RMK AO2
KHCO 201455Z AUTO 36008KT 5SM BR BKN009 19/18 A2993 RMK AO2
KHCO 201435Z AUTO 35007KT 5SM BR OVC007 19/18 A2993 RMK AO2
KHCO 201415Z AUTO 35006KT 5SM BR BKN007 19/18 A2992 RMK AO2
KHCO 201355Z AUTO 35008KT 4SM BR SCT007 19/18 A2992 RMK AO2
KHCO 201335Z AUTO 35007KT 5SM BR CLR 19/18 A2991 RMK AO2
KHCO 201315Z AUTO 35007KT 5SM BR SCT005 19/18 A2991 RMK AO2
KHCO 201255Z AUTO 35006KT 5SM BR BKN005 19/18 A2990 RMK AO2
KHCO 201235Z AUTO 36008KT 4SM BR OVC005 19/18 A2990 RMK AO2
KHCO 201215Z AUTO 34008KT 4SM BR OVC005 19/18 A2989 RMK AO2
KHCO 201155Z AUTO 34008KT 4SM BR OVC005 19/18 A2988 RMK AO2 P0011
KHCO 201135Z AUTO 34006KT 4SM RA BKN005 OVC011 19/18 A2987 RMK AO2 P0011
KHCO 201115Z AUTO 36008KT 5SM -RA BKN007 OVC010 19/18 A2987 RMK AO2
KHCO 201055Z AUTO 36007KT 7SM -DZ SCT005 OVC010 19/18 A2986 RMK AO2 P0015
KHCO 201035Z AUTO 36008KT 3SM +RA BKN007 BKN010 OVC038 19/18 A2986 RMK AO2 P0014
KHCO 201015Z AUTO 35006KT 7SM -DZ OVC005 19/18 A2985 RMK AO2
KHCO 200955Z AUTO 35007KT 10SM -DZ OVC005 19/18 A2985 RMK AO2
KHCO 200935Z AUTO 36006KT 10SM -DZ OVC005 19/18 A2984 RMK AO2
KHCO 200915Z AUTO 33007KT 10SM -RA OVC007 19/18 A2984 RMK AO2
KHCO 200855Z AUTO 34007KT 10SM OVC009 19/18 A2984 RMK AO2
KHCO 200835Z AUTO 33006KT 10SM -RA BKN009 OVC100 18/17 A2984 RMK AO2
KHCO 200815Z AUTO 33006KT 10SM OVC100 18/17 A2984 RMK AO2
KHCO 200755Z AUTO 31006KT 10SM OVC110 18/17 A2983 RMK AO2
KHCO 200735Z AUTO 32006KT 10SM OVC120 18/17 A2983 RMK AO2
KHCO 200715Z AUTO 33006KT 10SM SCT042 120 18/17 A2983 RMK AO2
KHCO 200655Z AUTO 32007KT 10SM SCT004 BKN041 OVC048 18/18 A2983 RMK AO2
KHCO 200635Z AUTO 31006KT 10SM BKN004 OVC037 19/18 A2983 RMK AO2
KHCO 200615Z AUTO 31004KT 10SM OVC004 18/18 A2983 RMK AO2
KHCO 200555Z AUTO 00000KT 10SM SCT004 BKN028 OVC110 18/17 A2984 RMK AO2
KHCO 200535Z AUTO 00000KT 10SM OVC008 18/17 A2984 RMK AO2
KHCO 200515Z AUTO 29004KT 10SM BKN008 OVC110 18/17 A2983 RMK AO2
KHCO 200455Z AUTO 32003KT 10SM SCT010 SCT070 OVC110 18/17 A2983 RMK AO2 LTG DSNT N
KHCO 200435Z AUTO 32004KT 10SM SCT010 BKN065 BKN110 18/17 A2982 RMK AO2
KHCO 200415Z AUTO 00000KT 10SM CLR 18/17 A2982 RMK AO2
KHCO 200355Z AUTO 35003KT 10SM CLR 18/17 A2982 RMK AO2
KHCO 200335Z AUTO 34006KT 10SM CLR 18/17 A2981 RMK AO2
KHCO 200315Z AUTO 34006KT 10SM SCT095 19/17 A2982 RMK AO2
KHCO 200255Z AUTO 33005KT 10SM OVC095 19/17 A2982 RMK AO2 LTG DSNT E
KHCO 200235Z AUTO 32005KT 10SM -RA BKN095 19/18 A2982 RMK AO2
KHCO 200215Z AUTO 27006KT 10SM SCT095 19/18 A2981 RMK AO2
KHCO 200155Z AUTO 23004KT 10SM SCT095 19/17 A2981 RMK AO2
KHCO 200135Z AUTO 36007KT 10SM BKN095 19/18 A2980 RMK AO2
KHCO 200115Z AUTO 33010G18KT 10SM SCT095 20/17 A2981 RMK AO2
KHCO 200055Z AUTO 32018G26KT 10SM CLR 21/17 A2980 RMK AO2 LTG DSNT S
KHCO 200035Z AUTO 30013G20KT 10SM VCTS SCT055 22/16 A2980 RMK AO2 LTG DSNT SW THRU N
KHCO 200015Z AUTO 29019G25KT 10SM SCT055 SCT090 120 24/17 A2978 RMK AO2 LTG DSNT SW
KHCO 192355Z AUTO 29007KT 10SM SCT028 SCT110 24/18 A2978 RMK AO2 LTG DSNT SW THRU N
KHCO 192335Z AUTO 30006KT 10SM SCT022 24/19 A2977 RMK AO2 LTG DSNT NW
KHCO 192315Z AUTO 28005KT 10SM SCT019 SCT024 BKN031 24/19 A2977 RMK AO2
KHCO 192255Z AUTO 20008KT 10SM CLR 26/22 A2976 RMK AO2
KHCO 192235Z AUTO 21008KT 10SM CLR 26/22 A2976 RMK AO2 LTG DSNT W AND NW
KHCO 192215Z AUTO 23008KT 10SM CLR 26/22 A2976 RMK AO2
KHCO 192155Z AUTO 21009KT 10SM CLR 26/22 A2976 RMK AO2 LTG DSNT W
KHCO 192136Z AUTO 21009KT 10SM CLR 26/22 A2976 RMK AO2 LTG DSNT W AND NW
KHCO 192115Z AUTO 16010KT 10SM CLR 27/21 A2975 RMK AO2
KHCO 192055Z AUTO 00000KT 10SM CLR 26/21 A2977 RMK AO2 LTG DSNT NW
KHCO 192035Z AUTO 00000KT 10SM CLR 26/21 A2978 RMK AO2 LTG DSNT NE
KHCO 192027Z AUTO 23003KT 10SM CLR 26/21 A2978 RMK AO2 LTG DSNT NE
KHCO 192008Z AUTO 22005KT 10SM CLR 26/21 A2978 RMK AO2
KHCO 191955Z AUTO 22005KT 10SM CLR 26/21 A2978 RMK AO2 LTG DSNT NW
KHCO 191935Z AUTO 20004KT 10SM CLR 26/21 A2979 RMK AO2 LTG DSNT N AND NW
KHCO 191915Z AUTO 20006KT 10SM CLR 26/21 A2979 RMK AO2 LTG DSNT E
KHCO 191855Z AUTO 22005KT 10SM CLR 26/21 A2979 RMK AO2
KHCO 191835Z AUTO 21004KT 10SM CLR 26/21 A2980 RMK AO2
KHCO 191815Z AUTO 21004KT 10SM CLR 26/21 A2980 RMK AO2 LTG DSNT N
KHCO 191755Z AUTO 22004KT 10SM CLR 26/21 A2980 RMK AO2 LTG DSNT E
KHCO 191735Z AUTO 19005KT 10SM CLR 26/21 A2980 RMK AO2 LTG DSNT W
KHCO 191715Z AUTO 20005KT 10SM CLR 25/21 A2979 RMK AO2
KHCO 191655Z AUTO 19004KT 10SM CLR 25/21 A2979 RMK AO2
KHCO 191635Z AUTO 20003KT 10SM CLR 24/21 A2980 RMK AO2
KHCO 191615Z AUTO 21003KT 10SM CLR 23/21 A2980 RMK AO2
KHCO 191555Z AUTO 21003KT 10SM CLR 23/21 A2980 RMK AO2
KHCO 191535Z AUTO 24004KT 10SM CLR 23/21 A2980 RMK AO2
KHCO 191515Z AUTO 20004KT 10SM SCT090 23/21 A2980 RMK AO2
KHCO 191455Z AUTO 19006KT 10SM SCT090 22/20 A2980 RMK AO2
KHCO 191435Z AUTO 21004KT 10SM SCT090 22/20 A2980 RMK AO2
KHCO 191415Z AUTO 18006KT 10SM CLR 22/20 A2980 RMK AO2
KHCO 191355Z AUTO 19005KT 10SM CLR 22/20 A2980 RMK AO2
KHCO 191335Z AUTO 19006KT 10SM CLR 21/19 A2980 RMK AO2
KHCO 191315Z AUTO 18006KT 10SM CLR 21/19 A2980 RMK AO2
KHCO 191255Z AUTO 17005KT 10SM CLR 21/19 A2980 RMK AO2
KHCO 191235Z AUTO 17006KT 10SM CLR 20/19 A2980 RMK AO2
KHCO 191215Z AUTO 17005KT 10SM CLR 19/19 A2980 RMK AO2
KHCO 191155Z AUTO 16005KT 10SM CLR 19/18 A2980 RMK AO2
KHCO 191135Z AUTO 16006KT 10SM CLR 18/17 A2980 RMK AO2
KHCO 191115Z AUTO 16006KT 10SM CLR 18/17 A2980 RMK AO2
KHCO 191055Z AUTO 16006KT 10SM CLR 17/16 A2981 RMK AO2
KHCO 191035Z AUTO 15005KT 10SM CLR 17/16 A2980 RMK AO2
KHCO 191015Z AUTO 15006KT 10SM CLR 17/17 A2980 RMK AO2
KHCO 190955Z AUTO 16006KT 10SM CLR 17/17 A2981 RMK AO2
KHCO 190935Z AUTO 15005KT 10SM CLR 18/17 A2982 RMK AO2
KHCO 190915Z AUTO 15004KT 10SM CLR 18/17 A2982 RMK AO2
KHCO 190855Z AUTO 14004KT 10SM CLR 18/17 A2983 RMK AO2